Time;durP1;ratioP1;P1;durP2;ratioP2;P2;SDS_P1;SDS_P2;PMS_P1;PMS_P2;Temp;Humidity;BMP_temperature;BMP_pressure;BME280_temperature;BME280_humidity;BME280_pressure;Samples;Min_cycle;Max_cycle;Signal;HPM_P1;HPM_P2
2023/10/14 00:00:25;;;;;;;13.80;7.47;;;23.70;48.50;;;;;;349645;28;1077;-58
2023/10/14 00:00:36;;;;;;;15.60;7.80;;;23.70;49.00;;;;;;349527;28;2017;-58
2023/10/14 00:00:47;;;;;;;15.93;7.68;;;23.60;48.70;;;;;;349691;28;1079;-57
2023/10/14 00:00:58;;;;;;;15.65;7.80;;;23.60;48.80;;;;;;349705;28;885;-56
2023/10/14 00:01:12;;;;;;;16.77;7.90;;;23.60;48.50;;;;;;349628;28;1087;-57
2023/10/14 00:01:31;;;;;;;17.88;8.07;;;23.60;48.00;;;;;;349704;28;1103;-57
2023/10/14 00:01:42;;;;;;;16.38;7.57;;;23.60;47.80;;;;;;349600;28;1094;-57
2023/10/14 00:02:01;;;;;;;14.93;7.43;;;23.60;47.80;;;;;;349666;28;971;-57
2023/10/14 00:02:21;;;;;;;15.50;7.68;;;23.60;48.00;;;;;;349627;28;951;-57
2023/10/14 00:02:32;;;;;;;15.60;8.02;;;23.60;48.50;;;;;;349650;28;1047;-58
2023/10/14 00:02:45;;;;;;;16.55;8.32;;;23.60;48.90;;;;;;349723;28;860;-58
2023/10/14 00:03:05;;;;;;;15.07;8.00;;;23.60;49.10;;;;;;349682;28;1022;-59
2023/10/14 00:03:29;;;;;;;13.52;7.82;;;23.60;49.10;;;;;;349645;28;991;-58
2023/10/14 00:03:45;;;;;;;14.40;8.13;;;23.60;49.20;;;;;;349673;28;1007;-58
2023/10/14 00:03:56;;;;;;;13.63;8.02;;;23.60;49.30;;;;;;349700;28;1135;-57
2023/10/14 00:04:10;;;;;;;13.63;7.85;;;23.50;49.10;;;;;;349643;28;1188;-57
2023/10/14 00:04:25;;;;;;;14.45;7.93;;;23.60;49.00;;;;;;349707;28;1094;-57
2023/10/14 00:04:36;;;;;;;16.85;8.30;;;23.50;49.10;;;;;;349697;28;935;-57
2023/10/14 00:04:46;;;;;;;17.55;8.45;;;23.50;49.20;;;;;;349613;28;1110;-58
2023/10/14 00:04:58;;;;;;;16.40;8.20;;;23.60;49.70;;;;;;349729;28;923;-58
2023/10/14 00:05:09;;;;;;;16.52;8.48;;;23.50;50.10;;;;;;349718;28;1269;-58
2023/10/14 00:05:21;;;;;;;16.67;8.27;;;23.50;50.30;;;;;;349627;28;2410;-58
2023/10/14 00:05:31;;;;;;;14.60;8.07;;;23.50;50.50;;;;;;350005;28;1122;-58
2023/10/14 00:05:42;;;;;;;15.50;8.05;;;23.50;50.70;;;;;;349734;28;979;-57
2023/10/14 00:05:54;;;;;;;15.00;8.20;;;23.50;50.90;;;;;;349653;28;971;-58
2023/10/14 00:06:08;;;;;;;17.48;8.13;;;23.50;51.00;;;;;;349600;28;1500;-57
2023/10/14 00:06:18;;;;;;;16.73;7.93;;;23.50;50.80;;;;;;349625;28;1126;-57
2023/10/14 00:06:29;;;;;;;17.52;8.05;;;23.50;50.50;;;;;;349614;28;1027;-57
2023/10/14 00:06:41;;;;;;;16.27;7.80;;;23.50;50.30;;;;;;349719;28;872;-57
2023/10/14 00:06:54;;;;;;;15.90;7.47;;;23.50;49.90;;;;;;349726;28;1031;-58
2023/10/14 00:07:08;;;;;;;17.92;7.55;;;23.50;50.00;;;;;;349636;28;900;-57
2023/10/14 00:07:25;;;;;;;18.65;7.82;;;23.50;49.80;;;;;;349705;28;907;-57
2023/10/14 00:07:35;;;;;;;15.38;7.88;;;23.50;49.60;;;;;;349623;28;983;-58
2023/10/14 00:07:46;;;;;;;14.32;7.65;;;23.40;49.80;;;;;;349726;28;1863;-57
2023/10/14 00:07:57;;;;;;;14.73;7.43;;;23.40;49.90;;;;;;349763;28;875;-57
2023/10/14 00:08:08;;;;;;;15.63;7.50;;;23.40;50.00;;;;;;349737;28;903;-57
2023/10/14 00:08:26;;;;;;;15.40;7.43;;;23.40;49.80;;;;;;349715;28;908;-58
2023/10/14 00:09:11;;;;;;;16.02;7.45;;;23.40;49.70;;;;;;349687;28;933;-57
2023/10/14 00:09:22;;;;;;;18.65;8.30;;;23.40;49.20;;;;;;349637;28;1121;-57
2023/10/14 00:09:34;;;;;;;17.53;8.60;;;23.40;49.20;;;;;;349614;28;918;-58
2023/10/14 00:09:46;;;;;;;19.02;8.50;;;23.40;49.40;;;;;;349703;28;1003;-58
2023/10/14 00:09:59;;;;;;;20.40;8.48;;;23.40;49.60;;;;;;349687;28;979;-57
2023/10/14 00:10:12;;;;;;;18.48;8.20;;;23.40;49.80;;;;;;349649;28;945;-58
2023/10/14 00:10:22;;;;;;;17.92;8.27;;;23.40;50.10;;;;;;349608;28;1468;-58
2023/10/14 00:10:34;;;;;;;15.57;8.07;;;23.40;50.40;;;;;;349728;28;833;-58
2023/10/14 00:10:46;;;;;;;18.08;8.07;;;23.40;50.70;;;;;;349642;28;1037;-57
2023/10/14 00:10:59;;;;;;;17.60;7.93;;;23.40;50.90;;;;;;349693;28;976;-58
2023/10/14 00:11:13;;;;;;;18.52;8.43;;;23.40;51.20;;;;;;349669;28;1109;-58
2023/10/14 00:11:51;;;;;;;20.35;8.60;;;23.40;51.20;;;;;;349558;28;1247;-58
2023/10/14 00:11:56;;;;;;;16.23;8.32;;;23.30;51.30;;;;;;349211;28;1654;-57
2023/10/14 00:12:13;;;;;;;17.30;8.77;;;23.30;51.50;;;;;;349685;28;960;-57
2023/10/14 00:12:24;;;;;;;16.92;8.77;;;23.30;51.70;;;;;;349584;28;1977;-57
2023/10/14 00:12:36;;;;;;;18.25;9.07;;;23.30;51.90;;;;;;349572;28;1106;-57
2023/10/14 00:12:53;;;;;;;17.88;9.05;;;23.30;52.00;;;;;;349682;28;888;-57
2023/10/14 00:13:04;;;;;;;16.42;9.52;;;23.30;52.00;;;;;;349657;28;1201;-57
2023/10/14 00:13:16;;;;;;;18.08;9.52;;;23.30;52.60;;;;;;349549;28;1635;-57
2023/10/14 00:13:41;;;;;;;18.05;9.10;;;23.30;52.60;;;;;;349730;28;1114;-57
2023/10/14 00:13:52;;;;;;;17.98;8.70;;;23.30;52.20;;;;;;349542;28;995;-57
2023/10/14 00:14:12;;;;;;;17.65;8.68;;;23.30;52.60;;;;;;349743;28;1065;-58
2023/10/14 00:14:23;;;;;;;17.33;8.48;;;23.30;52.50;;;;;;349629;28;1090;-57
2023/10/14 00:14:34;;;;;;;15.48;8.23;;;23.30;52.70;;;;;;349622;28;938;-58
2023/10/14 00:14:45;;;;;;;17.38;8.27;;;23.30;52.50;;;;;;349720;28;1027;-57
2023/10/14 00:14:56;;;;;;;18.17;8.33;;;23.20;52.30;;;;;;349678;28;1432;-57
2023/10/14 00:15:08;;;;;;;19.70;8.35;;;23.20;52.30;;;;;;349656;28;1035;-57
2023/10/14 00:15:19;;;;;;;18.00;8.68;;;23.20;52.40;;;;;;349644;28;2018;-58
2023/10/14 00:15:34;;;;;;;17.52;8.65;;;23.20;52.60;;;;;;349639;28;1193;-56
2023/10/14 00:15:45;;;;;;;20.42;9.18;;;23.20;53.00;;;;;;349593;28;1106;-58
2023/10/14 00:16:00;;;;;;;20.42;9.10;;;23.20;53.10;;;;;;349730;28;1039;-57
2023/10/14 00:16:20;;;;;;;17.85;8.65;;;23.20;52.80;;;;;;349655;28;1875;-57
2023/10/14 00:16:35;;;;;;;16.10;8.44;;;23.20;52.40;;;;;;349606;28;1939;-58
2023/10/14 00:16:49;;;;;;;15.63;8.38;;;23.20;52.30;;;;;;349676;28;1271;-58
2023/10/14 00:17:04;;;;;;;18.38;9.02;;;23.20;52.60;;;;;;349618;28;928;-58
2023/10/14 00:17:18;;;;;;;21.40;9.00;;;23.20;52.80;;;;;;349727;28;950;-58
2023/10/14 00:17:34;;;;;;;19.20;8.75;;;23.20;53.20;;;;;;349614;28;1115;-57
2023/10/14 00:17:45;;;;;;;19.38;9.00;;;23.20;53.30;;;;;;349633;28;968;-58
2023/10/14 00:17:59;;;;;;;19.85;8.73;;;23.20;54.10;;;;;;349657;28;1087;-58
2023/10/14 00:18:09;;;;;;;17.20;8.27;;;23.20;53.60;;;;;;349701;28;995;-58
2023/10/14 00:18:20;;;;;;;16.90;8.20;;;23.20;53.00;;;;;;349685;28;1154;-57
2023/10/14 00:18:32;;;;;;;16.80;8.40;;;23.20;52.60;;;;;;349626;28;1027;-57
2023/10/14 00:18:47;;;;;;;15.73;8.43;;;23.20;52.30;;;;;;349597;28;848;-58
2023/10/14 00:19:01;;;;;;;18.65;8.40;;;23.20;51.90;;;;;;349707;28;892;-58
2023/10/14 00:19:12;;;;;;;17.90;8.30;;;23.20;52.10;;;;;;349666;28;2016;-57
2023/10/14 00:19:23;;;;;;;16.48;8.65;;;23.20;52.70;;;;;;349739;28;1027;-57
2023/10/14 00:19:33;;;;;;;15.55;8.68;;;23.20;53.10;;;;;;349580;28;1125;-56
2023/10/14 00:19:55;;;;;;;15.10;8.45;;;23.10;53.80;;;;;;349719;28;1780;-56
2023/10/14 00:20:08;;;;;;;15.35;8.57;;;23.20;54.10;;;;;;349688;28;1062;-58
2023/10/14 00:20:19;;;;;;;16.48;8.50;;;23.10;53.60;;;;;;349591;28;1126;-58
2023/10/14 00:20:35;;;;;;;16.83;8.30;;;23.10;53.40;;;;;;349597;28;1744;-58
2023/10/14 00:20:46;;;;;;;16.27;8.65;;;23.10;53.20;;;;;;349671;28;1035;-56
2023/10/14 00:20:57;;;;;;;16.98;9.05;;;23.10;53.60;;;;;;349724;28;813;-58
2023/10/14 00:21:12;;;;;;;17.63;9.30;;;23.10;53.90;;;;;;349672;28;907;-57
2023/10/14 00:21:26;;;;;;;19.60;9.20;;;23.10;54.20;;;;;;349661;28;1035;-57
2023/10/14 00:21:37;;;;;;;18.10;8.73;;;23.10;54.40;;;;;;349668;28;1174;-57
2023/10/14 00:21:49;;;;;;;17.90;8.98;;;23.10;54.10;;;;;;349687;28;1185;-57
2023/10/14 00:22:00;;;;;;;19.70;9.15;;;23.10;53.60;;;;;;349592;28;1007;-58
2023/10/14 00:22:11;;;;;;;21.55;9.13;;;23.10;53.40;;;;;;349687;28;1019;-57
2023/10/14 00:22:23;;;;;;;19.15;8.80;;;23.10;53.60;;;;;;349635;28;1107;-56
2023/10/14 00:22:38;;;;;;;22.92;9.23;;;23.10;54.00;;;;;;349724;28;857;-57
2023/10/14 00:22:49;;;;;;;21.90;9.07;;;23.10;54.40;;;;;;349700;28;836;-57
2023/10/14 00:23:00;;;;;;;19.58;8.73;;;23.10;54.40;;;;;;349697;28;898;-57
2023/10/14 00:23:11;;;;;;;17.43;8.50;;;23.10;54.20;;;;;;349678;28;979;-56
2023/10/14 00:23:26;;;;;;;18.95;8.90;;;23.10;54.00;;;;;;349697;28;1023;-58
2023/10/14 00:23:37;;;;;;;19.40;9.65;;;23.10;54.50;;;;;;349569;28;1901;-57
2023/10/14 00:23:48;;;;;;;21.17;9.73;;;23.10;54.60;;;;;;349692;28;1004;-57
2023/10/14 00:24:01;;;;;;;21.13;9.35;;;23.10;54.60;;;;;;349663;28;1058;-59
2023/10/14 00:24:25;;;;;;;19.42;9.13;;;23.10;54.80;;;;;;349628;28;996;-56
2023/10/14 00:24:39;;;;;;;18.65;9.75;;;23.10;55.20;;;;;;349635;28;1007;-57
2023/10/14 00:24:52;;;;;;;19.30;9.57;;;23.00;55.20;;;;;;349703;28;1058;-58
2023/10/14 00:25:14;;;;;;;17.75;9.18;;;23.00;54.90;;;;;;349558;28;987;-57
2023/10/14 00:25:26;;;;;;;20.67;9.60;;;23.00;54.30;;;;;;349621;28;1109;-57
2023/10/14 00:25:37;;;;;;;24.38;10.13;;;23.00;54.70;;;;;;349637;28;1093;-57
2023/10/14 00:25:48;;;;;;;27.90;10.93;;;23.00;54.90;;;;;;349601;28;1060;-58
2023/10/14 00:25:59;;;;;;;28.27;11.32;;;23.00;54.90;;;;;;349668;28;1085;-57
2023/10/14 00:26:16;;;;;;;25.88;11.13;;;23.00;54.80;;;;;;349733;28;824;-58
2023/10/14 00:26:27;;;;;;;20.13;9.95;;;23.00;55.10;;;;;;349641;28;985;-59
2023/10/14 00:26:38;;;;;;;17.95;9.35;;;23.00;54.70;;;;;;349733;28;1023;-58
2023/10/14 00:26:49;;;;;;;17.83;8.67;;;23.00;54.20;;;;;;349663;28;1158;-58
2023/10/14 00:27:04;;;;;;;17.15;8.65;;;23.00;53.70;;;;;;349701;28;971;-58
2023/10/14 00:27:15;;;;;;;17.67;9.15;;;23.00;53.70;;;;;;349622;28;1130;-58
2023/10/14 00:27:25;;;;;;;24.23;9.93;;;23.00;54.20;;;;;;349732;28;1081;-59
2023/10/14 00:27:37;;;;;;;26.80;10.18;;;23.00;54.80;;;;;;349575;28;1082;-57
2023/10/14 00:27:50;;;;;;;26.67;10.18;;;23.00;54.90;;;;;;349700;28;907;-58
2023/10/14 00:28:13;;;;;;;22.02;9.75;;;22.90;54.60;;;;;;349534;28;1223;-58
2023/10/14 00:28:24;;;;;;;18.30;9.43;;;22.90;54.30;;;;;;349362;28;1452;-58
2023/10/14 00:28:34;;;;;;;19.00;9.35;;;22.90;54.20;;;;;;349509;28;840;-58
2023/10/14 00:28:45;;;;;;;20.90;9.50;;;22.90;53.80;;;;;;349531;28;1277;-59
2023/10/14 00:29:29;;;;;;;20.15;8.93;;;22.90;54.10;;;;;;349575;28;1111;-57
2023/10/14 00:29:39;;;;;;;19.35;9.00;;;22.90;54.10;;;;;;349569;28;1105;-57
2023/10/14 00:30:09;;;;;;;19.33;9.38;;;22.90;54.40;;;;;;349693;28;1007;-58
2023/10/14 00:30:26;;;;;;;21.05;9.65;;;22.90;54.80;;;;;;349689;28;1039;-57
2023/10/14 00:30:38;;;;;;;23.05;9.85;;;22.90;56.20;;;;;;349643;28;856;-57
2023/10/14 00:30:48;;;;;;;24.20;9.77;;;22.90;55.80;;;;;;349655;28;992;-58
2023/10/14 00:30:59;;;;;;;25.67;9.63;;;22.90;55.40;;;;;;349599;28;936;-58
2023/10/14 00:31:10;;;;;;;22.13;9.38;;;22.90;55.10;;;;;;349686;28;1024;-58
2023/10/14 00:31:23;;;;;;;20.55;9.43;;;22.90;54.80;;;;;;349655;28;1144;-57
2023/10/14 00:31:34;;;;;;;18.52;9.23;;;22.80;54.60;;;;;;349661;28;1055;-57
2023/10/14 00:31:49;;;;;;;17.63;9.15;;;22.90;54.50;;;;;;349628;28;1054;-58
2023/10/14 00:32:03;;;;;;;17.25;9.15;;;22.90;54.60;;;;;;349678;28;900;-57
2023/10/14 00:32:14;;;;;;;17.02;9.57;;;22.90;55.60;;;;;;349673;28;987;-59
2023/10/14 00:32:24;;;;;;;16.33;9.27;;;22.90;55.80;;;;;;349613;28;898;-57
2023/10/14 00:32:35;;;;;;;19.63;8.90;;;22.80;55.40;;;;;;349682;28;1034;-57
2023/10/14 00:32:46;;;;;;;19.63;8.80;;;22.80;55.40;;;;;;349679;28;1015;-57
2023/10/14 00:32:57;;;;;;;20.55;9.05;;;22.90;55.50;;;;;;349644;28;933;-58
2023/10/14 00:33:08;;;;;;;20.58;9.55;;;22.80;55.90;;;;;;349619;28;1435;-57
2023/10/14 00:33:20;;;;;;;21.73;10.15;;;22.90;55.90;;;;;;349591;28;1268;-57
2023/10/14 00:33:31;;;;;;;20.35;9.90;;;22.80;55.60;;;;;;349401;28;1188;-58
2023/10/14 00:33:45;;;;;;;19.45;9.75;;;22.80;55.00;;;;;;349710;28;1043;-57
2023/10/14 00:33:56;;;;;;;21.45;9.90;;;22.80;55.00;;;;;;349681;28;1150;-57
2023/10/14 00:34:07;;;;;;;23.10;10.57;;;22.70;55.60;;;;;;349589;28;1221;-58
2023/10/14 00:34:22;;;;;;;24.05;10.63;;;22.80;56.20;;;;;;349624;28;1732;-57
2023/10/14 00:34:33;;;;;;;23.63;10.10;;;22.80;56.40;;;;;;349604;28;1055;-57
2023/10/14 00:34:44;;;;;;;21.20;9.63;;;22.80;56.30;;;;;;349651;28;977;-57
2023/10/14 00:34:54;;;;;;;20.65;9.55;;;22.80;56.10;;;;;;349703;28;1003;-58
2023/10/14 00:35:09;;;;;;;20.45;9.77;;;22.80;56.00;;;;;;349728;28;871;-57
2023/10/14 00:35:20;;;;;;;21.23;9.93;;;22.80;55.80;;;;;;349556;28;991;-59
2023/10/14 00:35:31;;;;;;;20.85;9.88;;;22.80;55.80;;;;;;349702;28;933;-57
2023/10/14 00:35:43;;;;;;;20.38;9.95;;;22.70;56.00;;;;;;349633;28;1019;-57
2023/10/14 00:35:55;;;;;;;20.13;9.93;;;22.70;56.40;;;;;;349620;28;939;-58
2023/10/14 00:36:11;;;;;;;21.00;10.02;;;22.80;56.70;;;;;;349691;28;1874;-57
2023/10/14 00:36:23;;;;;;;19.58;9.30;;;22.80;56.70;;;;;;349592;28;1193;-57
2023/10/14 00:36:34;;;;;;;19.52;9.48;;;22.70;56.00;;;;;;349574;28;1005;-57
2023/10/14 00:36:45;;;;;;;17.85;9.18;;;22.70;55.70;;;;;;349645;28;837;-57
2023/10/14 00:36:56;;;;;;;17.15;9.00;;;22.80;55.50;;;;;;349655;28;1230;-58
2023/10/14 00:37:09;;;;;;;17.03;8.93;;;22.70;54.90;;;;;;349586;28;1793;-58
2023/10/14 00:37:20;;;;;;;18.85;9.30;;;22.70;54.70;;;;;;349653;28;931;-58
2023/10/14 00:37:34;;;;;;;18.98;9.50;;;22.70;54.50;;;;;;349599;28;1825;-57
2023/10/14 00:37:45;;;;;;;20.08;10.00;;;22.70;55.00;;;;;;349615;28;1194;-57
2023/10/14 00:38:00;;;;;;;20.40;10.15;;;22.70;55.30;;;;;;349617;28;1093;-59
2023/10/14 00:38:15;;;;;;;19.88;9.85;;;22.70;55.40;;;;;;349642;28;1046;-58
2023/10/14 00:38:27;;;;;;;18.38;9.43;;;22.70;55.20;;;;;;349562;28;940;-58
2023/10/14 00:38:39;;;;;;;17.27;9.02;;;22.70;55.10;;;;;;349636;28;1005;-57
2023/10/14 00:38:55;;;;;;;17.15;9.07;;;22.70;54.90;;;;;;349601;28;956;-57
2023/10/14 00:39:13;;;;;;;18.80;9.73;;;22.70;55.10;;;;;;349655;28;1071;-57
2023/10/14 00:39:26;;;;;;;19.83;9.90;;;22.70;55.70;;;;;;349669;28;983;-58
2023/10/14 00:39:37;;;;;;;18.60;9.80;;;22.70;56.40;;;;;;349661;28;1039;-57
2023/10/14 00:40:00;;;;;;;17.55;9.88;;;22.70;56.60;;;;;;349560;28;1508;-56
2023/10/14 00:40:12;;;;;;;14.73;9.10;;;22.70;56.30;;;;;;349534;28;1122;-57
2023/10/14 00:40:23;;;;;;;17.42;9.35;;;22.70;56.30;;;;;;349681;28;942;-58
2023/10/14 00:40:37;;;;;;;18.92;9.65;;;22.70;56.30;;;;;;349595;28;983;-58
2023/10/14 00:40:48;;;;;;;18.25;9.57;;;22.70;56.50;;;;;;349633;28;1035;-58
2023/10/14 00:40:59;;;;;;;14.45;9.05;;;22.70;56.40;;;;;;349573;28;1017;-58
2023/10/14 00:41:10;;;;;;;14.85;9.15;;;22.70;56.50;;;;;;349691;28;1780;-57
2023/10/14 00:41:25;;;;;;;15.32;9.27;;;22.70;56.70;;;;;;349613;28;876;-58
2023/10/14 00:41:36;;;;;;;17.83;9.65;;;22.70;57.10;;;;;;349643;28;952;-58
2023/10/14 00:41:50;;;;;;;18.77;9.57;;;22.70;57.30;;;;;;349594;28;983;-58
2023/10/14 00:42:01;;;;;;;17.92;9.75;;;22.70;57.00;;;;;;349628;28;951;-57
2023/10/14 00:42:12;;;;;;;17.13;9.93;;;22.70;57.00;;;;;;349699;28;1031;-57
2023/10/14 00:42:23;;;;;;;17.88;9.93;;;22.70;57.10;;;;;;349573;28;1111;-58
2023/10/14 00:42:33;;;;;;;18.70;9.43;;;22.70;57.40;;;;;;349657;28;1075;-57
2023/10/14 00:42:44;;;;;;;19.40;9.40;;;22.70;57.10;;;;;;349666;28;829;-58
2023/10/14 00:42:57;;;;;;;18.75;9.10;;;22.70;56.80;;;;;;349548;28;914;-57
2023/10/14 00:43:08;;;;;;;16.23;9.05;;;22.70;56.80;;;;;;349718;28;848;-58
2023/10/14 00:43:20;;;;;;;14.68;8.95;;;22.70;56.60;;;;;;349650;28;1138;-57
2023/10/14 00:43:31;;;;;;;14.30;9.24;;;22.70;56.40;;;;;;349436;28;1907;-57
2023/10/14 00:43:41;;;;;;;16.70;9.40;;;22.70;56.00;;;;;;349664;28;1071;-58
2023/10/14 00:43:53;;;;;;;17.52;9.73;;;22.70;55.90;;;;;;349696;28;952;-58
2023/10/14 00:44:04;;;;;;;17.92;9.63;;;22.70;56.00;;;;;;349594;28;1031;-60
2023/10/14 00:44:15;;;;;;;17.00;9.45;;;22.60;56.10;;;;;;349672;28;833;-59
2023/10/14 00:44:26;;;;;;;17.77;9.30;;;22.60;56.20;;;;;;349599;28;1473;-58
2023/10/14 00:44:38;;;;;;;18.30;9.37;;;22.70;56.30;;;;;;349531;28;1820;-57
2023/10/14 00:44:48;;;;;;;18.15;9.20;;;22.70;56.30;;;;;;349634;28;1066;-57
2023/10/14 00:44:59;;;;;;;17.77;9.50;;;22.70;56.10;;;;;;349619;28;1615;-57
2023/10/14 00:45:11;;;;;;;17.50;9.55;;;22.70;55.90;;;;;;349542;28;1603;-58
2023/10/14 00:45:21;;;;;;;18.83;9.73;;;22.70;55.70;;;;;;349665;28;992;-57
2023/10/14 00:45:32;;;;;;;18.63;9.57;;;22.70;55.80;;;;;;349627;28;1154;-58
2023/10/14 00:45:43;;;;;;;17.63;9.65;;;22.70;55.80;;;;;;349542;28;1413;-57
2023/10/14 00:45:54;;;;;;;17.10;9.65;;;22.70;55.80;;;;;;349618;28;1078;-57
2023/10/14 00:46:16;;;;;;;17.33;9.63;;;22.60;56.00;;;;;;349710;28;853;-58
2023/10/14 00:46:31;;;;;;;18.63;10.02;;;22.70;56.40;;;;;;349647;28;1090;-57
2023/10/14 00:46:48;;;;;;;17.00;9.55;;;22.60;56.60;;;;;;349674;28;908;-57
2023/10/14 00:46:59;;;;;;;18.15;9.35;;;22.70;56.90;;;;;;349602;28;1842;-57
2023/10/14 00:47:15;;;;;;;17.92;9.40;;;22.70;56.70;;;;;;349648;28;1061;-58
2023/10/14 00:47:26;;;;;;;17.50;10.00;;;22.60;56.40;;;;;;349622;28;995;-57
2023/10/14 00:47:40;;;;;;;19.60;10.18;;;22.70;56.40;;;;;;349671;28;884;-58
2023/10/14 00:47:51;;;;;;;19.70;9.98;;;22.60;56.50;;;;;;349597;28;1109;-57
2023/10/14 00:48:03;;;;;;;19.05;10.02;;;22.60;56.60;;;;;;349667;28;1348;-58
2023/10/14 00:48:19;;;;;;;18.15;9.73;;;22.60;56.50;;;;;;349671;28;1047;-58
2023/10/14 00:48:33;;;;;;;20.17;9.73;;;22.60;56.50;;;;;;349595;28;1138;-58
2023/10/14 00:48:46;;;;;;;21.90;10.25;;;22.60;56.60;;;;;;349554;28;1986;-58
2023/10/14 00:49:04;;;;;;;18.88;10.07;;;22.60;56.90;;;;;;349594;28;1107;-57
2023/10/14 00:49:22;;;;;;;17.88;9.95;;;22.60;56.70;;;;;;349650;28;1080;-58
2023/10/14 00:49:34;;;;;;;19.73;10.43;;;22.60;56.70;;;;;;349540;28;1650;-57
2023/10/14 00:49:45;;;;;;;21.63;10.48;;;22.60;57.00;;;;;;349604;28;1118;-57
2023/10/14 00:49:58;;;;;;;20.95;10.35;;;22.60;57.10;;;;;;349661;28;1068;-58
2023/10/14 00:50:35;;;;;;;20.80;10.15;;;22.60;57.30;;;;;;349570;28;1173;-57
2023/10/14 00:50:46;;;;;;;20.65;10.18;;;22.60;58.00;;;;;;349665;28;877;-58
2023/10/14 00:51:01;;;;;;;18.67;10.05;;;22.60;57.80;;;;;;349644;28;1118;-57
2023/10/14 00:51:17;;;;;;;19.42;10.00;;;22.50;57.70;;;;;;349580;28;1123;-60
2023/10/14 00:51:30;;;;;;;18.06;10.14;;;22.50;57.90;;;;;;349687;28;1058;-58
2023/10/14 00:51:42;;;;;;;16.75;9.93;;;22.60;58.10;;;;;;349693;28;1062;-58
2023/10/14 00:51:58;;;;;;;20.13;10.25;;;22.60;58.00;;;;;;349663;28;853;-58
2023/10/14 00:52:16;;;;;;;21.33;10.40;;;22.50;58.10;;;;;;349670;28;999;-58
2023/10/14 00:52:29;;;;;;;17.80;9.85;;;22.60;58.20;;;;;;349608;28;1131;-57
2023/10/14 00:52:40;;;;;;;18.25;10.15;;;22.50;58.10;;;;;;349486;28;1134;-57
2023/10/14 00:52:57;;;;;;;20.52;10.48;;;22.50;58.10;;;;;;349655;28;975;-57
2023/10/14 00:53:10;;;;;;;20.67;10.82;;;22.50;58.30;;;;;;349447;28;1558;-57
2023/10/14 00:53:21;;;;;;;18.98;10.60;;;22.60;58.50;;;;;;349633;28;1197;-58
2023/10/14 00:53:36;;;;;;;19.27;10.65;;;22.50;58.40;;;;;;349622;28;1042;-58
2023/10/14 00:54:01;;;;;;;18.63;10.32;;;22.50;58.50;;;;;;349664;28;868;-57
2023/10/14 00:54:15;;;;;;;17.85;10.05;;;22.50;58.10;;;;;;349580;28;1011;-58
2023/10/14 00:55:13;;;;;;;17.13;9.48;;;22.50;57.10;;;;;;349704;28;987;-57
2023/10/14 00:55:27;;;;;;;16.20;9.57;;;22.50;57.20;;;;;;349653;28;1106;-57
2023/10/14 00:55:54;;;;;;;16.90;9.82;;;22.50;57.40;;;;;;349639;28;1189;-57
2023/10/14 00:56:06;;;;;;;18.20;10.27;;;22.50;57.50;;;;;;349644;28;869;-57
2023/10/14 00:56:27;;;;;;;18.30;10.27;;;22.50;57.60;;;;;;349585;28;1008;-58
2023/10/14 00:56:42;;;;;;;15.80;9.77;;;22.50;57.80;;;;;;349610;28;1019;-57
2023/10/14 00:57:00;;;;;;;14.35;9.38;;;22.50;57.90;;;;;;349683;28;975;-58
2023/10/14 00:57:20;;;;;;;16.75;10.07;;;22.50;58.00;;;;;;349607;28;1138;-58
2023/10/14 00:57:38;;;;;;;16.48;10.00;;;22.50;57.90;;;;;;349613;28;1780;-57
2023/10/14 00:57:54;;;;;;;18.90;10.23;;;22.50;58.10;;;;;;349565;28;1013;-58
2023/10/14 00:58:05;;;;;;;20.05;9.98;;;22.50;58.20;;;;;;349638;28;1016;-58
2023/10/14 00:58:20;;;;;;;17.48;9.70;;;22.50;57.70;;;;;;349631;28;926;-57
2023/10/14 00:58:31;;;;;;;20.23;10.07;;;22.40;57.80;;;;;;349607;28;1011;-58
2023/10/14 00:58:44;;;;;;;21.05;10.18;;;22.40;58.10;;;;;;349565;28;1907;-57
2023/10/14 00:58:58;;;;;;;19.27;10.55;;;22.40;58.60;;;;;;349693;28;1035;-57
2023/10/14 00:59:09;;;;;;;16.63;10.82;;;22.40;58.80;;;;;;349491;28;2444;-57
2023/10/14 00:59:21;;;;;;;17.98;10.75;;;22.40;59.20;;;;;;349691;28;1085;-57
2023/10/14 00:59:33;;;;;;;20.75;10.75;;;22.40;59.50;;;;;;349553;28;904;-57
2023/10/14 00:59:49;;;;;;;20.08;10.18;;;22.50;59.50;;;;;;349611;28;984;-56
2023/10/14 01:00:00;;;;;;;17.67;9.95;;;22.40;59.30;;;;;;349527;28;1007;-57
2023/10/14 01:00:11;;;;;;;18.33;10.13;;;22.50;59.20;;;;;;349668;28;983;-57
2023/10/14 01:00:37;;;;;;;19.77;10.50;;;22.40;59.00;;;;;;349582;28;1106;-58
2023/10/14 01:00:57;;;;;;;19.10;10.07;;;22.40;58.80;;;;;;349576;28;855;-58
2023/10/14 01:01:07;;;;;;;18.52;10.23;;;22.40;59.10;;;;;;349545;28;2025;-57
2023/10/14 01:01:18;;;;;;;17.70;10.37;;;22.40;59.30;;;;;;349603;28;1006;-57
2023/10/14 01:01:49;;;;;;;18.05;10.57;;;22.40;59.40;;;;;;349678;28;1007;-58
2023/10/14 01:02:01;;;;;;;19.60;10.48;;;22.40;59.20;;;;;;349521;28;1130;-58
2023/10/14 01:02:13;;;;;;;17.25;10.00;;;22.40;59.20;;;;;;349626;28;1126;-57
2023/10/14 01:02:32;;;;;;;15.70;10.10;;;22.40;59.10;;;;;;349680;28;892;-58
2023/10/14 01:02:45;;;;;;;19.45;10.80;;;22.40;59.00;;;;;;349635;28;1066;-58
2023/10/14 01:02:56;;;;;;;18.45;10.93;;;22.40;59.00;;;;;;349659;28;1052;-58
2023/10/14 01:03:09;;;;;;;16.45;11.15;;;22.40;59.10;;;;;;349579;28;1049;-59
2023/10/14 01:03:20;;;;;;;17.60;11.25;;;22.40;59.10;;;;;;349601;28;1197;-59
2023/10/14 01:03:31;;;;;;;21.57;11.20;;;22.40;58.70;;;;;;349593;28;1906;-58
2023/10/14 01:03:42;;;;;;;21.52;10.75;;;22.40;58.60;;;;;;349566;28;1078;-58
2023/10/14 01:03:56;;;;;;;20.53;10.63;;;22.40;58.50;;;;;;349624;28;1137;-59
2023/10/14 01:04:20;;;;;;;19.13;10.68;;;22.40;58.70;;;;;;349709;28;854;-59
2023/10/14 01:04:33;;;;;;;21.38;10.90;;;22.40;58.70;;;;;;349529;28;1122;-59
2023/10/14 01:04:51;;;;;;;21.17;10.93;;;22.40;59.10;;;;;;349638;28;1130;-57
2023/10/14 01:05:14;;;;;;;19.38;10.95;;;22.40;59.40;;;;;;349644;28;991;-58
2023/10/14 01:05:24;;;;;;;20.38;10.98;;;22.40;59.80;;;;;;349486;28;1126;-58
2023/10/14 01:05:39;;;;;;;20.10;10.70;;;22.40;59.70;;;;;;349635;28;887;-58
2023/10/14 01:05:50;;;;;;;17.80;10.32;;;22.30;59.60;;;;;;349606;28;1035;-58
2023/10/14 01:06:34;;;;;;;18.83;10.50;;;22.40;59.60;;;;;;349549;28;1784;-57
2023/10/14 01:06:55;;;;;;;18.13;10.65;;;22.30;59.60;;;;;;347245;28;1807;-57
2023/10/14 01:07:12;;;;;;;16.73;9.90;;;22.30;58.70;;;;;;349483;28;1135;-58
2023/10/14 01:07:26;;;;;;;17.15;10.00;;;22.40;58.30;;;;;;349623;28;1139;-56
2023/10/14 01:07:40;;;;;;;17.48;10.25;;;22.40;58.40;;;;;;349588;28;1243;-57
2023/10/14 01:07:51;;;;;;;18.75;10.60;;;22.40;58.60;;;;;;349579;28;1082;-58
2023/10/14 01:08:07;;;;;;;19.95;10.85;;;22.30;58.80;;;;;;349671;28;852;-59
2023/10/14 01:08:22;;;;;;;18.52;10.57;;;22.40;58.90;;;;;;349597;28;1951;-58
2023/10/14 01:08:37;;;;;;;20.55;10.40;;;22.30;58.90;;;;;;349579;28;1035;-57
2023/10/14 01:08:52;;;;;;;19.00;9.85;;;22.40;58.50;;;;;;349657;28;1101;-57
2023/10/14 01:09:10;;;;;;;17.40;9.70;;;22.40;58.30;;;;;;349603;28;1097;-57
2023/10/14 01:09:31;;;;;;;19.08;10.50;;;22.40;58.30;;;;;;349609;28;1055;-57
2023/10/14 01:10:00;;;;;;;19.80;9.82;;;22.40;58.10;;;;;;349603;28;1047;-58
2023/10/14 01:10:12;;;;;;;20.75;9.90;;;22.40;58.00;;;;;;349670;28;1011;-58
2023/10/14 01:10:27;;;;;;;20.45;9.88;;;22.40;58.00;;;;;;349533;28;1110;-58
2023/10/14 01:10:39;;;;;;;20.45;10.23;;;22.40;57.90;;;;;;349660;28;939;-56
2023/10/14 01:10:49;;;;;;;17.60;9.80;;;22.40;57.80;;;;;;349627;28;1189;-58
2023/10/14 01:11:03;;;;;;;17.08;9.32;;;22.40;57.70;;;;;;349567;28;987;-58
2023/10/14 01:11:16;;;;;;;18.08;9.20;;;22.40;57.70;;;;;;349624;28;1535;-57
2023/10/14 01:11:27;;;;;;;19.25;9.63;;;22.40;57.80;;;;;;349614;28;1000;-58
2023/10/14 01:11:41;;;;;;;18.83;10.02;;;22.40;58.10;;;;;;349521;28;1438;-57
2023/10/14 01:11:52;;;;;;;16.65;10.18;;;22.40;58.50;;;;;;349659;28;865;-57
2023/10/14 01:12:16;;;;;;;17.50;10.35;;;22.40;58.50;;;;;;349687;28;964;-57
2023/10/14 01:12:29;;;;;;;17.25;9.77;;;22.40;58.10;;;;;;349522;28;924;-58
2023/10/14 01:12:44;;;;;;;15.80;9.85;;;22.40;57.40;;;;;;349687;28;921;-58
2023/10/14 01:12:55;;;;;;;18.42;9.75;;;22.40;57.60;;;;;;349617;28;1130;-58
2023/10/14 01:13:09;;;;;;;19.00;9.82;;;22.40;58.00;;;;;;349599;28;1083;-57
2023/10/14 01:13:23;;;;;;;18.73;10.30;;;22.40;58.20;;;;;;349577;28;1030;-58
2023/10/14 01:13:34;;;;;;;17.92;10.20;;;22.40;58.20;;;;;;349630;28;1193;-57
2023/10/14 01:13:45;;;;;;;16.73;10.00;;;22.40;58.10;;;;;;349557;28;994;-58
2023/10/14 01:14:04;;;;;;;16.52;9.88;;;22.50;58.00;;;;;;349686;28;1023;-57
2023/10/14 01:14:17;;;;;;;19.15;10.15;;;22.50;57.80;;;;;;349587;28;1544;-58
2023/10/14 01:14:28;;;;;;;19.83;10.20;;;22.40;57.70;;;;;;349552;28;963;-59
2023/10/14 01:14:41;;;;;;;19.80;10.23;;;22.50;57.40;;;;;;349647;28;1024;-58